createdAt,value
2017-10-08T00:00:32.134Z,99.99
2017-10-08T00:01:32.130Z,99.99
2017-10-08T00:02:32.125Z,99.99
2017-10-08T00:03:32.123Z,99.99
2017-10-08T00:04:32.119Z,99.99
2017-10-08T00:05:32.114Z,99.99
2017-10-08T00:06:32.105Z,99.99
2017-10-08T00:07:32.102Z,99.99
2017-10-08T00:08:32.098Z,99.99
2017-10-08T00:09:32.094Z,99.99
2017-10-08T00:10:32.088Z,99.99
2017-10-08T00:11:32.084Z,99.99
2017-10-08T00:12:32.080Z,99.99
2017-10-08T00:13:32.076Z,99.99
2017-10-08T00:14:32.077Z,99.99
2017-10-08T00:15:32.072Z,99.99
2017-10-08T00:16:32.068Z,99.99
2017-10-08T00:17:32.065Z,99.99
2017-10-08T00:18:32.061Z,99.99
2017-10-08T00:19:32.057Z,99.99
2017-10-08T00:20:32.052Z,99.99
2017-10-08T00:21:32.048Z,99.99
2017-10-08T00:22:32.040Z,99.99
2017-10-08T00:23:32.049Z,99.99
2017-10-08T00:24:32.032Z,99.99
2017-10-08T00:25:32.026Z,99.99
2017-10-08T00:26:32.024Z,99.99
2017-10-08T00:27:32.020Z,99.99
2017-10-08T00:28:32.015Z,99.99
2017-10-08T00:29:32.012Z,99.99
2017-10-08T00:30:32.011Z,99.99
2017-10-08T00:31:32.010Z,99.99
2017-10-08T00:32:32.003Z,99.99
2017-10-08T00:33:31.999Z,99.99
2017-10-08T00:34:31.996Z,99.99
2017-10-08T00:35:31.992Z,99.99
2017-10-08T00:36:31.987Z,99.99
2017-10-08T00:37:31.982Z,99.99
2017-10-08T00:38:31.976Z,99.99
2017-10-08T00:39:31.972Z,99.99
2017-10-08T00:40:31.966Z,99.99
2017-10-08T00:41:31.962Z,99.99
2017-10-08T00:42:31.962Z,99.99
2017-10-08T00:43:31.959Z,99.99
2017-10-08T00:44:31.954Z,99.99
2017-10-08T00:45:31.949Z,99.99
2017-10-08T00:46:31.942Z,99.99
2017-10-08T00:47:31.938Z,99.99
2017-10-08T00:48:31.932Z,99.99
2017-10-08T00:49:31.929Z,99.99
2017-10-08T00:50:31.926Z,99.99
2017-10-08T00:51:31.922Z,99.99
2017-10-08T00:52:31.917Z,99.99
2017-10-08T00:53:31.914Z,99.99
2017-10-08T00:54:31.914Z,99.99
2017-10-08T00:55:31.910Z,99.99
2017-10-08T00:56:31.905Z,99.99
2017-10-08T00:57:31.901Z,99.99
2017-10-08T00:58:31.899Z,99.99
2017-10-08T00:59:31.895Z,99.99
2017-10-08T01:00:31.890Z,99.99
2017-10-08T01:01:31.886Z,99.99
2017-10-08T01:02:31.877Z,99.99
2017-10-08T01:03:31.875Z,99.99
2017-10-08T01:04:31.869Z,99.99
2017-10-08T01:05:31.866Z,99.99
2017-10-08T01:06:31.862Z,99.99
2017-10-08T01:07:31.859Z,99.99
2017-10-08T01:08:31.854Z,99.99
2017-10-08T01:09:31.850Z,99.99
2017-10-08T01:10:31.849Z,99.99
2017-10-08T01:11:31.848Z,99.99
2017-10-08T01:12:31.842Z,99.99
2017-10-08T01:13:31.839Z,99.99
2017-10-08T01:14:31.835Z,99.99
2017-10-08T01:15:31.832Z,99.99
2017-10-08T01:16:31.828Z,99.99
2017-10-08T01:17:31.823Z,99.99
2017-10-08T01:18:31.814Z,99.99
2017-10-08T01:19:31.812Z,99.99
2017-10-08T01:20:31.807Z,99.99
2017-10-08T01:21:31.804Z,99.99
2017-10-08T01:22:31.800Z,99.99
2017-10-08T01:23:31.795Z,99.99
2017-10-08T01:24:31.792Z,99.99
2017-10-08T01:25:31.788Z,99.99
2017-10-08T01:26:31.789Z,99.99
2017-10-08T01:27:31.786Z,99.99
2017-10-08T01:28:31.779Z,99.99
2017-10-08T01:29:31.776Z,99.99
2017-10-08T01:30:31.774Z,99.99
2017-10-08T01:31:31.772Z,99.99
2017-10-08T01:32:31.766Z,99.99
2017-10-08T01:33:31.762Z,99.99
2017-10-08T01:34:31.753Z,99.99
2017-10-08T01:35:31.749Z,99.99
2017-10-08T01:36:31.746Z,99.99
2017-10-08T01:37:31.742Z,99.99
2017-10-08T01:38:31.739Z,99.99
2017-10-08T01:39:31.735Z,99.99
2017-10-08T01:40:31.728Z,99.99
2017-10-08T01:41:31.727Z,99.99
2017-10-08T01:42:31.727Z,99.99
2017-10-08T01:43:31.723Z,99.99
2017-10-08T01:44:31.718Z,99.99
2017-10-08T01:45:31.714Z,99.99
2017-10-08T01:46:31.706Z,99.99
2017-10-08T01:47:31.703Z,99.99
2017-10-08T01:48:31.699Z,99.99
2017-10-08T01:49:31.696Z,99.99
2017-10-08T01:50:31.695Z,99.99
2017-10-08T01:51:31.692Z,99.99
2017-10-08T01:52:31.686Z,99.99
2017-10-08T01:53:31.684Z,99.99
2017-10-08T01:54:31.683Z,99.99
2017-10-08T01:55:31.676Z,99.99
2017-10-08T01:56:31.672Z,99.99
2017-10-08T01:57:31.668Z,99.99
2017-10-08T01:58:31.660Z,99.99
2017-10-08T01:59:31.656Z,99.99
2017-10-08T02:00:31.652Z,99.99
2017-10-08T02:01:31.647Z,99.99
2017-10-08T02:02:31.645Z,99.99
2017-10-08T02:03:31.642Z,99.99
2017-10-08T02:04:31.636Z,99.99
2017-10-08T02:05:31.632Z,99.99
2017-10-08T02:06:31.633Z,99.99
2017-10-08T02:07:31.630Z,99.99
2017-10-08T02:08:31.624Z,99.99
2017-10-08T02:09:31.621Z,99.99
2017-10-08T02:10:31.618Z,99.99
2017-10-08T02:11:31.614Z,99.99
2017-10-08T02:12:31.611Z,99.99
2017-10-08T02:13:31.606Z,99.99
2017-10-08T02:14:31.599Z,99.99
2017-10-08T02:15:31.596Z,99.99
2017-10-08T02:16:31.591Z,99.99
2017-10-08T02:17:31.588Z,99.99
2017-10-08T02:18:31.584Z,99.99
2017-10-08T02:19:31.579Z,99.99
2017-10-08T02:20:31.576Z,99.99
2017-10-08T02:21:31.572Z,99.99
2017-10-08T02:22:31.574Z,99.99
2017-10-08T02:23:31.569Z,99.99
2017-10-08T02:24:31.565Z,99.99
2017-10-08T02:25:31.562Z,99.99
2017-10-08T02:26:31.560Z,99.99
2017-10-08T02:27:31.554Z,99.99
2017-10-08T02:28:31.554Z,99.99
2017-10-08T02:29:31.546Z,99.99
2017-10-08T02:30:31.541Z,99.99
2017-10-08T02:31:31.536Z,99.99
2017-10-08T02:32:31.531Z,99.99
2017-10-08T02:33:31.527Z,99.99
2017-10-08T02:34:31.525Z,99.99
2017-10-08T02:35:31.523Z,99.99
2017-10-08T02:36:31.517Z,99.99
2017-10-08T02:37:31.514Z,99.99
2017-10-08T02:38:31.514Z,99.99
2017-10-08T02:39:31.511Z,99.99
2017-10-08T02:40:31.510Z,99.99
2017-10-08T02:41:31.503Z,99.99
2017-10-08T02:42:31.498Z,99.99
2017-10-08T02:43:31.499Z,99.99
2017-10-08T02:44:31.492Z,99.99
2017-10-08T02:45:31.487Z,99.99
2017-10-08T02:46:31.479Z,99.99
2017-10-08T02:47:31.476Z,99.99
2017-10-08T02:48:31.474Z,99.99
2017-10-08T02:49:31.469Z,99.99
2017-10-08T02:50:31.470Z,99.99
2017-10-08T02:51:31.466Z,99.99
2017-10-08T02:52:31.463Z,99.99
2017-10-08T02:53:31.459Z,99.99
2017-10-08T02:54:31.450Z,99.99
2017-10-08T02:55:31.447Z,99.99
2017-10-08T02:56:31.444Z,99.99
2017-10-08T02:57:31.440Z,99.99
2017-10-08T02:58:31.437Z,99.99
2017-10-08T02:59:31.433Z,99.99
2017-10-08T03:00:31.429Z,99.99
2017-10-08T03:01:31.428Z,99.99
2017-10-08T03:02:31.426Z,99.99
2017-10-08T03:03:31.422Z,99.99
2017-10-08T03:04:31.418Z,99.99
2017-10-08T03:05:31.415Z,99.99
2017-10-08T03:06:31.411Z,99.99
2017-10-08T03:07:31.408Z,99.99
2017-10-08T03:08:31.402Z,99.99
2017-10-08T03:09:31.399Z,99.99
2017-10-08T03:10:31.392Z,99.99
2017-10-08T03:11:31.389Z,99.99
2017-10-08T03:12:31.383Z,99.99
2017-10-08T03:13:31.380Z,99.99
2017-10-08T03:14:31.377Z,99.99
2017-10-08T03:15:31.374Z,99.99
2017-10-08T03:16:31.373Z,99.99
2017-10-08T03:17:31.366Z,99.99
2017-10-08T03:18:31.367Z,99.99
2017-10-08T03:19:31.364Z,99.99
2017-10-08T03:20:31.364Z,99.99
2017-10-08T03:21:31.355Z,99.99
2017-10-08T03:22:31.351Z,99.99
2017-10-08T03:23:31.348Z,99.99
2017-10-08T03:24:31.345Z,99.99
2017-10-08T03:25:31.341Z,99.99
2017-10-08T03:26:31.334Z,99.99
2017-10-08T03:27:31.330Z,99.99
2017-10-08T03:28:31.326Z,99.99
2017-10-08T03:29:31.323Z,99.99
2017-10-08T03:30:31.321Z,99.99
2017-10-08T03:31:31.317Z,99.99
2017-10-08T03:32:31.311Z,99.99
2017-10-08T03:33:31.307Z,99.99
2017-10-08T03:34:31.309Z,99.99
2017-10-08T03:35:31.304Z,99.99
2017-10-08T03:36:31.300Z,99.99
2017-10-08T03:37:31.298Z,99.99
2017-10-08T03:38:31.294Z,99.99
2017-10-08T03:39:31.291Z,99.99
2017-10-08T03:40:31.288Z,99.99
2017-10-08T03:41:31.283Z,99.99
2017-10-08T03:42:31.275Z,99.99
2017-10-08T03:43:31.276Z,99.99
2017-10-08T03:44:31.268Z,99.99
2017-10-08T03:45:31.281Z,99.99
2017-10-08T03:46:31.279Z,99.99
2017-10-08T03:47:31.258Z,99.99
2017-10-08T03:48:31.274Z,99.99
2017-10-08T03:49:31.249Z,99.99
2017-10-08T03:50:31.250Z,99.99
2017-10-08T03:51:31.248Z,99.99
2017-10-08T03:52:31.242Z,99.99
2017-10-08T03:53:31.240Z,99.99
2017-10-08T03:54:31.233Z,99.99
2017-10-08T03:55:31.229Z,99.99
2017-10-08T03:56:31.225Z,99.99
2017-10-08T03:57:31.221Z,99.99
2017-10-08T03:58:31.223Z,99.99
2017-10-08T03:59:31.220Z,99.99
2017-10-08T04:00:31.213Z,99.99
2017-10-08T04:01:31.211Z,99.99
2017-10-08T04:02:31.208Z,99.99
2017-10-08T04:03:31.203Z,99.99
2017-10-08T04:04:31.200Z,99.99
2017-10-08T04:05:31.196Z,99.99
2017-10-08T04:06:31.188Z,99.99
2017-10-08T04:07:31.185Z,99.99
2017-10-08T04:08:31.180Z,99.99
2017-10-08T04:09:31.179Z,99.99
2017-10-08T04:10:31.173Z,99.99
2017-10-08T04:11:31.171Z,99.99
2017-10-08T04:12:31.166Z,99.99
2017-10-08T04:13:31.163Z,99.99
2017-10-08T04:14:31.165Z,99.99
2017-10-08T04:15:31.163Z,99.99
2017-10-08T04:16:31.158Z,99.99
2017-10-08T04:17:31.158Z,99.99
2017-10-08T04:18:31.150Z,99.99
2017-10-08T04:19:31.146Z,99.99
2017-10-08T04:20:31.141Z,99.99
2017-10-08T04:21:31.146Z,99.99
2017-10-08T04:22:31.132Z,99.99
2017-10-08T04:23:31.127Z,99.99
2017-10-08T04:24:31.124Z,99.99
2017-10-08T04:25:31.121Z,99.99
2017-10-08T04:26:31.118Z,99.99
2017-10-08T04:27:31.115Z,99.99
2017-10-08T04:28:31.110Z,99.99
2017-10-08T04:29:31.108Z,99.99
2017-10-08T04:30:31.107Z,99.99
2017-10-08T04:31:31.104Z,99.99
2017-10-08T04:32:31.100Z,99.99
2017-10-08T04:33:31.097Z,99.99
2017-10-08T04:34:31.097Z,99.99
2017-10-08T04:35:31.091Z,99.99
2017-10-08T04:36:31.086Z,99.99
2017-10-08T04:37:31.082Z,99.99
2017-10-08T04:38:31.076Z,99.99
2017-10-08T04:39:31.071Z,99.99
2017-10-08T04:40:31.068Z,99.99
2017-10-08T04:41:31.064Z,99.99
2017-10-08T04:42:31.062Z,99.99
2017-10-08T04:43:31.061Z,99.99
2017-10-08T04:44:31.053Z,99.99
2017-10-08T04:45:31.051Z,99.99
2017-10-08T04:46:31.052Z,99.99
2017-10-08T04:47:31.048Z,99.99
2017-10-08T04:48:31.043Z,99.99
2017-10-08T04:49:31.041Z,99.99
2017-10-08T04:50:31.038Z,99.99
2017-10-08T04:51:31.034Z,99.99
2017-10-08T04:52:31.030Z,99.99
2017-10-08T04:53:31.027Z,99.99
2017-10-08T04:54:31.020Z,99.99
2017-10-08T04:55:31.016Z,99.99
2017-10-08T04:56:31.011Z,99.99
2017-10-08T04:57:31.008Z,99.99
2017-10-08T04:58:31.010Z,99.99
2017-10-08T04:59:31.001Z,99.99
2017-10-08T05:00:30.997Z,99.99
2017-10-08T05:01:30.996Z,99.99
2017-10-08T05:02:30.996Z,99.99
2017-10-08T05:03:30.992Z,99.99
2017-10-08T05:04:30.987Z,99.99
2017-10-08T05:05:30.983Z,99.99
2017-10-08T05:06:30.981Z,99.99
2017-10-08T05:07:30.979Z,99.99
2017-10-08T05:08:30.975Z,99.99
2017-10-08T05:09:30.971Z,99.99
2017-10-08T05:10:30.962Z,99.99
2017-10-08T05:11:30.962Z,99.99
2017-10-08T05:12:30.956Z,99.99
2017-10-08T05:13:30.952Z,99.99
2017-10-08T05:14:30.949Z,99.99
2017-10-08T05:15:30.945Z,99.99
2017-10-08T05:16:30.941Z,99.99
2017-10-08T05:17:30.937Z,99.99
2017-10-08T05:18:30.938Z,99.99
2017-10-08T05:19:30.935Z,99.99
2017-10-08T05:20:30.931Z,99.99
2017-10-08T05:21:30.928Z,99.99
2017-10-08T05:22:30.925Z,99.99
2017-10-08T05:23:30.924Z,99.99
2017-10-08T05:24:30.918Z,99.99
2017-10-08T05:25:30.914Z,99.99
2017-10-08T05:26:30.908Z,99.99
2017-10-08T05:27:30.904Z,99.99
2017-10-08T05:28:30.900Z,99.99
2017-10-08T05:29:30.897Z,99.99
2017-10-08T05:30:30.892Z,99.99
2017-10-08T05:31:30.889Z,99.99
2017-10-08T05:32:30.884Z,99.99
2017-10-08T05:33:30.882Z,99.99
2017-10-08T05:34:30.882Z,99.99
2017-10-08T05:35:30.879Z,99.99
2017-10-08T05:36:30.876Z,99.99
2017-10-08T05:37:30.873Z,99.99
2017-10-08T05:38:30.868Z,99.99
2017-10-08T05:39:30.867Z,99.99
2017-10-08T05:40:30.862Z,99.99
2017-10-08T05:41:30.859Z,99.99
2017-10-08T05:42:30.852Z,99.99
2017-10-08T05:43:30.847Z,99.99
2017-10-08T05:44:30.847Z,99.99
2017-10-08T05:45:30.843Z,99.99
2017-10-08T05:46:30.838Z,99.99
2017-10-08T05:47:30.835Z,99.99
2017-10-08T05:48:30.830Z,99.99
2017-10-08T05:49:30.829Z,99.99
2017-10-08T05:50:30.827Z,99.99
2017-10-08T05:51:30.824Z,99.99
2017-10-08T05:52:30.818Z,99.99
2017-10-08T05:53:30.819Z,99.99
2017-10-08T05:54:30.814Z,99.99
2017-10-08T05:55:30.811Z,99.99
2017-10-08T05:56:30.805Z,99.99
2017-10-08T05:57:30.803Z,99.99
2017-10-08T05:58:30.795Z,99.99
2017-10-08T05:59:30.796Z,99.99
2017-10-08T06:00:30.789Z,99.99
2017-10-08T06:01:30.787Z,99.99
2017-10-08T06:02:30.785Z,99.99
2017-10-08T06:03:30.781Z,99.99
2017-10-08T06:04:30.778Z,99.99
2017-10-08T06:05:30.782Z,99.99
2017-10-08T06:06:30.765Z,99.99
2017-10-08T06:07:30.763Z,99.99
2017-10-08T06:08:30.759Z,99.99
2017-10-08T06:09:30.757Z,99.99
2017-10-08T06:10:30.752Z,99.99
2017-10-08T06:11:30.749Z,99.99
2017-10-08T06:12:30.745Z,99.99
2017-10-08T06:13:30.740Z,99.99
2017-10-08T06:14:30.742Z,99.99
2017-10-08T06:15:30.738Z,99.99
2017-10-08T06:16:30.734Z,99.99
2017-10-08T06:17:30.732Z,99.99
2017-10-08T06:18:30.728Z,99.99
2017-10-08T06:19:30.724Z,99.99
2017-10-08T06:20:30.720Z,99.99
2017-10-08T06:21:30.715Z,99.99
2017-10-08T06:22:30.709Z,99.99
2017-10-08T06:23:30.708Z,99.99
2017-10-08T06:24:30.701Z,99.99
2017-10-08T06:25:30.698Z,99.99
2017-10-08T06:26:30.693Z,99.99
2017-10-08T06:27:30.691Z,99.99
2017-10-08T06:28:30.687Z,99.99
2017-10-08T06:29:30.687Z,99.99
2017-10-08T06:30:30.689Z,99.99
2017-10-08T06:31:30.682Z,99.99
2017-10-08T06:32:30.680Z,99.99
2017-10-08T06:33:30.674Z,99.99
2017-10-08T06:34:30.673Z,99.99
2017-10-08T06:35:30.667Z,99.99
2017-10-08T06:36:30.663Z,99.99
2017-10-08T06:37:30.660Z,99.99
2017-10-08T06:38:30.653Z,99.99
2017-10-08T06:39:30.653Z,99.99
2017-10-08T06:40:30.645Z,99.99
2017-10-08T06:41:30.641Z,99.99
2017-10-08T06:42:30.639Z,99.99
2017-10-08T06:43:30.637Z,99.99
2017-10-08T06:44:30.633Z,99.99
2017-10-08T06:45:30.629Z,99.99
2017-10-08T06:46:30.632Z,99.99
2017-10-08T06:47:30.628Z,99.99
2017-10-08T06:48:30.623Z,99.99
2017-10-08T06:49:30.621Z,99.99
2017-10-08T06:50:30.616Z,99.99
2017-10-08T06:51:30.613Z,99.99
2017-10-08T06:52:30.611Z,99.99
2017-10-08T06:53:30.608Z,99.99
2017-10-08T06:54:30.601Z,99.99
2017-10-08T06:55:30.598Z,99.99
2017-10-08T06:56:30.594Z,99.99
2017-10-08T06:57:30.591Z,99.99
2017-10-08T06:58:30.587Z,99.99
2017-10-08T06:59:30.584Z,99.99
2017-10-08T07:00:30.585Z,99.99
2017-10-08T07:01:30.579Z,99.99
2017-10-08T07:02:30.580Z,99.99
2017-10-08T07:03:30.576Z,99.99
2017-10-08T07:04:30.573Z,99.99
2017-10-08T07:05:30.569Z,99.99
2017-10-08T07:06:30.563Z,99.99
2017-10-08T07:07:30.560Z,99.99
2017-10-08T07:08:30.554Z,99.99
2017-10-08T07:09:30.552Z,99.99
2017-10-08T07:10:30.554Z,99.99
2017-10-08T07:11:30.552Z,99.99
2017-10-08T07:12:30.548Z,99.99
2017-10-08T07:13:30.545Z,99.99
2017-10-08T07:14:30.542Z,99.99
2017-10-08T07:15:30.540Z,99.99
2017-10-08T07:16:30.539Z,99.99
2017-10-08T07:17:30.539Z,99.99
2017-10-08T07:18:30.528Z,99.99
2017-10-08T07:19:30.523Z,99.99
2017-10-08T07:20:30.520Z,99.99
2017-10-08T07:21:30.521Z,99.99
2017-10-08T07:22:30.517Z,99.99
2017-10-08T07:23:30.513Z,99.99
2017-10-08T07:24:30.510Z,99.99
2017-10-08T07:25:30.507Z,99.99
2017-10-08T07:26:30.508Z,99.99
2017-10-08T07:27:30.508Z,99.99
2017-10-08T07:28:30.503Z,99.99
2017-10-08T07:29:30.500Z,99.99
2017-10-08T07:30:30.498Z,99.99
2017-10-08T07:31:30.495Z,99.99
2017-10-08T07:32:30.493Z,99.99
2017-10-08T07:33:30.490Z,99.99
2017-10-08T07:34:30.485Z,99.99
2017-10-08T07:35:30.482Z,99.99
2017-10-08T07:36:30.479Z,99.99
2017-10-08T07:37:30.477Z,99.99
2017-10-08T07:38:30.475Z,99.99
2017-10-08T07:39:30.472Z,99.99
2017-10-08T07:40:30.470Z,99.99
2017-10-08T07:41:30.468Z,99.99
2017-10-08T07:42:30.471Z,99.99
2017-10-08T07:43:30.469Z,99.99
2017-10-08T07:44:30.470Z,99.99
2017-10-08T07:45:30.464Z,99.99
2017-10-08T07:46:30.463Z,99.99
2017-10-08T07:47:30.461Z,99.99
2017-10-08T07:48:30.457Z,99.99
2017-10-08T07:49:30.457Z,99.87
2017-10-08T07:50:30.451Z,99.99
2017-10-08T07:51:30.451Z,99.99
2017-10-08T07:52:30.449Z,99.99
2017-10-08T07:53:30.447Z,99.91
2017-10-08T07:54:30.447Z,99.99
2017-10-08T07:55:30.447Z,99.99
2017-10-08T07:56:30.444Z,99.99
2017-10-08T07:57:30.444Z,99.99
2017-10-08T07:58:30.447Z,99.99
2017-10-08T07:59:30.446Z,99.99
2017-10-08T08:00:30.444Z,99.99
2017-10-08T08:01:30.442Z,99.99
2017-10-08T08:02:30.442Z,99.99
2017-10-08T08:03:30.441Z,99.99
2017-10-08T08:04:30.438Z,99.99
2017-10-08T08:05:30.437Z,99.99
2017-10-08T08:06:30.434Z,99.99
2017-10-08T08:07:30.431Z,99.99
2017-10-08T08:08:30.428Z,99.99
2017-10-08T08:09:30.427Z,99.99
2017-10-08T08:10:30.431Z,99.99
2017-10-08T08:11:30.430Z,99.99
2017-10-08T08:12:30.426Z,99.99
2017-10-08T08:13:30.425Z,99.99
2017-10-08T08:14:30.420Z,99.99
2017-10-08T08:15:30.418Z,99.99
2017-10-08T08:16:30.416Z,99.99
2017-10-08T08:17:30.415Z,99.99
2017-10-08T08:18:30.414Z,99.99
2017-10-08T08:19:30.416Z,99.99
2017-10-08T08:20:30.410Z,99.99
2017-10-08T08:21:30.410Z,99.99
2017-10-08T08:22:30.411Z,99.99
2017-10-08T08:23:30.411Z,99.99
2017-10-08T08:24:30.410Z,99.99
2017-10-08T08:25:30.414Z,99.99
2017-10-08T08:26:30.410Z,99.99
2017-10-08T08:27:30.407Z,99.99
2017-10-08T08:28:30.405Z,99.99
2017-10-08T08:29:30.404Z,99.99
2017-10-08T08:30:30.400Z,99.99
2017-10-08T08:31:30.398Z,99.99
2017-10-08T08:32:30.397Z,99.99
2017-10-08T08:33:30.395Z,99.99
2017-10-08T08:34:30.395Z,99.99
2017-10-08T08:35:30.395Z,99.99
2017-10-08T08:36:30.393Z,99.99
2017-10-08T08:37:30.390Z,99.99
2017-10-08T08:38:30.395Z,99.99
2017-10-08T08:39:30.394Z,99.99
2017-10-08T08:40:30.389Z,99.99
2017-10-08T08:41:30.391Z,99.99
2017-10-08T08:42:30.388Z,99.99
2017-10-08T08:43:30.388Z,99.99
2017-10-08T08:44:30.385Z,99.99
2017-10-08T08:45:30.384Z,99.99
2017-10-08T08:46:30.377Z,99.99
2017-10-08T08:47:30.376Z,99.99
2017-10-08T08:48:30.374Z,99.99
2017-10-08T08:49:30.374Z,99.99
2017-10-08T08:50:30.373Z,99.99
2017-10-08T08:51:30.372Z,99.99
2017-10-08T08:52:30.370Z,99.99
2017-10-08T08:53:30.368Z,99.99
2017-10-08T08:54:30.372Z,99.99
2017-10-08T08:55:30.371Z,99.99
2017-10-08T08:56:30.369Z,99.99
2017-10-08T08:57:30.367Z,99.68
2017-10-08T08:58:30.370Z,99.10
2017-10-08T08:59:30.369Z,97.90
2017-10-08T09:00:30.366Z,97.42
2017-10-08T09:01:30.389Z,97.42
2017-10-08T09:02:30.361Z,97.04
2017-10-08T09:03:30.361Z,97.23
2017-10-08T09:04:30.360Z,97.14
2017-10-08T09:05:30.359Z,97.18
2017-10-08T09:06:30.361Z,96.80
2017-10-08T09:07:30.360Z,97.28
2017-10-08T09:08:30.357Z,98.14
2017-10-08T09:09:30.357Z,98.91
2017-10-08T09:10:30.363Z,98.52
2017-10-08T09:11:30.361Z,98.72
2017-10-08T09:12:30.369Z,98.28
2017-10-08T09:13:30.360Z,98.47
2017-10-08T09:14:30.359Z,99.15
2017-10-08T09:15:30.356Z,99.82
2017-10-08T09:16:30.353Z,99.99
2017-10-08T09:17:30.353Z,99.82
2017-10-08T09:18:30.357Z,99.99
2017-10-08T09:19:30.356Z,99.99
2017-10-08T09:20:30.354Z,99.99
2017-10-08T09:21:30.385Z,99.99
2017-10-08T09:22:30.353Z,99.99
2017-10-08T09:23:30.353Z,99.99
2017-10-08T09:24:30.351Z,99.99
2017-10-08T09:25:30.350Z,99.99
2017-10-08T09:26:30.345Z,99.99
2017-10-08T09:27:30.344Z,99.99
2017-10-08T09:28:30.343Z,99.99
2017-10-08T09:29:30.341Z,99.99
2017-10-08T09:30:30.342Z,99.99
2017-10-08T09:31:30.338Z,99.99
2017-10-08T09:32:30.341Z,99.99
2017-10-08T09:33:30.338Z,99.99
2017-10-08T09:34:30.338Z,99.99
2017-10-08T09:35:30.339Z,99.99
2017-10-08T09:36:30.335Z,99.99
2017-10-08T09:37:30.334Z,99.99
2017-10-08T09:38:30.332Z,99.99
2017-10-08T09:39:30.335Z,99.99
2017-10-08T09:40:30.329Z,99.99
2017-10-08T09:41:30.326Z,99.82
2017-10-08T09:42:30.323Z,93.43
2017-10-08T09:43:30.320Z,87.74
2017-10-08T09:44:30.318Z,83.08
2017-10-08T09:45:30.319Z,78.31
2017-10-08T09:46:30.318Z,73.11
2017-10-08T09:47:30.318Z,69.15
2017-10-08T09:48:30.319Z,65.27
2017-10-08T09:49:30.320Z,62.06
2017-10-08T09:50:30.327Z,60.05
2017-10-08T09:51:30.329Z,58.35
2017-10-08T09:52:30.332Z,56.20
2017-10-08T09:53:30.336Z,55.62
2017-10-08T09:54:30.344Z,56.00
2017-10-08T09:55:30.345Z,57.08
2017-10-08T09:56:30.351Z,58.16
2017-10-08T09:57:30.355Z,59.10
2017-10-08T09:58:30.357Z,60.88
2017-10-08T09:59:30.364Z,63.43
2017-10-08T10:00:30.368Z,64.76
2017-10-08T10:01:30.374Z,66.85
2017-10-08T10:02:30.381Z,68.17
2017-10-08T10:03:30.386Z,69.49
2017-10-08T10:04:30.391Z,70.61
2017-10-08T10:05:30.398Z,72.44
2017-10-08T10:06:30.407Z,74.01
2017-10-08T10:07:30.411Z,73.88
2017-10-08T10:08:30.419Z,75.09
2017-10-08T10:09:30.422Z,76.40
2017-10-08T10:10:30.427Z,77.36
2017-10-08T10:11:30.433Z,78.90
2017-10-08T10:12:30.434Z,79.67
2017-10-08T10:13:30.442Z,80.25
2017-10-08T10:14:30.477Z,80.44
2017-10-08T10:15:30.444Z,80.06
2017-10-08T10:16:30.448Z,80.19
2017-10-08T10:17:30.450Z,81.06
2017-10-08T10:18:30.456Z,79.71
2017-10-08T10:19:30.461Z,79.33
2017-10-08T10:20:30.465Z,79.23
2017-10-08T10:21:30.468Z,79.52
2017-10-08T10:22:30.468Z,80.00
2017-10-08T10:23:30.471Z,79.66
2017-10-08T10:24:30.472Z,79.46
2017-10-08T10:25:30.476Z,77.92
2017-10-08T10:26:30.480Z,78.06
2017-10-08T10:27:30.484Z,78.44
2017-10-08T10:28:30.487Z,77.96
2017-10-08T10:29:30.491Z,77.48
2017-10-08T10:30:30.502Z,76.90
2017-10-08T10:31:30.502Z,77.09
2017-10-08T10:32:30.504Z,76.26
2017-10-08T10:33:30.507Z,75.65
2017-10-08T10:34:30.512Z,75.74
2017-10-08T10:35:30.515Z,75.55
2017-10-08T10:36:30.517Z,75.59
2017-10-08T10:37:30.520Z,75.07
2017-10-08T10:38:30.521Z,74.68
2017-10-08T10:39:30.526Z,75.71
2017-10-08T10:40:30.527Z,75.26
2017-10-08T10:41:30.531Z,74.49
2017-10-08T10:42:30.536Z,74.68
2017-10-08T10:43:30.539Z,74.68
2017-10-08T10:44:30.592Z,75.20
2017-10-08T10:45:30.556Z,74.24
2017-10-08T10:46:30.554Z,73.85
2017-10-08T10:47:30.558Z,73.99
2017-10-08T10:48:30.561Z,73.60
2017-10-08T10:49:30.570Z,72.83
2017-10-08T10:50:30.569Z,72.92
2017-10-08T10:51:30.574Z,72.63
2017-10-08T10:52:30.577Z,72.44
2017-10-08T10:53:30.581Z,72.31
2017-10-08T10:54:30.601Z,71.64
2017-10-08T10:55:30.586Z,71.54
2017-10-08T10:56:30.593Z,71.44
2017-10-08T10:57:30.593Z,70.90
2017-10-08T10:58:30.597Z,71.06
2017-10-08T10:59:30.602Z,71.25
2017-10-08T11:00:30.605Z,71.89
2017-10-08T11:01:30.614Z,72.18
2017-10-08T11:02:30.617Z,72.43
2017-10-08T11:03:30.624Z,73.49
2017-10-08T11:04:30.624Z,72.78
2017-10-08T11:05:30.628Z,74.22
2017-10-08T11:06:30.632Z,73.88
2017-10-08T11:07:30.637Z,73.49
2017-10-08T11:08:30.640Z,73.88
2017-10-08T11:09:30.643Z,72.33
2017-10-08T11:10:30.642Z,73.58
2017-10-08T11:11:30.647Z,72.63
2017-10-08T11:12:30.649Z,72.81
2017-10-08T11:13:30.652Z,73.49
2017-10-08T11:14:30.658Z,74.26
2017-10-08T11:15:30.659Z,73.84
2017-10-08T11:16:30.663Z,75.57
2017-10-08T11:17:30.670Z,75.48
2017-10-08T11:18:30.673Z,74.51
2017-10-08T11:19:30.678Z,75.28
2017-10-08T11:20:30.679Z,75.24
2017-10-08T11:21:30.681Z,74.86
2017-10-08T11:22:30.681Z,76.26
2017-10-08T11:23:30.685Z,76.94
2017-10-08T11:24:30.690Z,76.71
2017-10-08T11:25:30.692Z,76.42
2017-10-08T11:26:30.697Z,77.73
2017-10-08T11:27:30.700Z,78.21
2017-10-08T11:28:30.701Z,78.59
2017-10-08T11:29:30.705Z,78.59
2017-10-08T11:30:30.720Z,79.46
2017-10-08T11:31:30.709Z,79.99
2017-10-08T11:32:30.711Z,79.90
2017-10-08T11:33:30.712Z,80.19
2017-10-08T11:34:30.710Z,79.96
2017-10-08T11:35:30.713Z,80.15
2017-10-08T11:36:30.743Z,80.43
2017-10-08T11:37:30.716Z,80.78
2017-10-08T11:38:30.738Z,80.68
2017-10-08T11:39:30.719Z,81.45
2017-10-08T11:40:30.719Z,81.98
2017-10-08T11:41:30.720Z,82.75
2017-10-08T11:42:30.725Z,82.94
2017-10-08T11:43:30.725Z,82.62
2017-10-08T11:44:30.726Z,83.29
2017-10-08T11:45:30.726Z,83.76
2017-10-08T11:46:30.748Z,83.86
2017-10-08T11:47:30.734Z,84.20
2017-10-08T11:48:30.727Z,83.82
2017-10-08T11:49:30.728Z,84.49
2017-10-08T11:50:30.724Z,85.06
2017-10-08T11:51:30.724Z,85.06
2017-10-08T11:52:30.727Z,85.06
2017-10-08T11:53:30.722Z,85.74
2017-10-08T11:54:30.723Z,85.54
2017-10-08T11:55:30.723Z,85.74
2017-10-08T11:56:30.721Z,85.93
2017-10-08T11:57:30.721Z,85.25
2017-10-08T11:58:30.724Z,85.54
2017-10-08T11:59:30.724Z,85.45
2017-10-08T12:00:30.724Z,85.54
2017-10-08T12:01:30.723Z,85.93
2017-10-08T12:02:30.723Z,86.60
2017-10-08T12:03:30.722Z,86.41
2017-10-08T12:04:30.719Z,86.88
2017-10-08T12:05:30.720Z,87.03
2017-10-08T12:06:30.728Z,87.13
2017-10-08T12:07:30.715Z,87.51
2017-10-08T12:08:30.713Z,87.51
2017-10-08T12:09:30.711Z,87.90
2017-10-08T12:10:30.712Z,88.66
2017-10-08T12:11:30.710Z,88.85
2017-10-08T12:12:30.709Z,89.23
2017-10-08T12:13:30.707Z,89.23
2017-10-08T12:14:30.711Z,89.14
2017-10-08T12:15:30.710Z,87.99
2017-10-08T12:16:30.708Z,88.95
2017-10-08T12:17:30.708Z,88.90
2017-10-08T12:18:30.708Z,88.70
2017-10-08T12:19:30.705Z,89.18
2017-10-08T12:20:30.705Z,88.80
2017-10-08T12:21:30.704Z,87.84
2017-10-08T12:22:30.697Z,87.94
2017-10-08T12:23:30.697Z,87.80
2017-10-08T12:24:30.694Z,88.28
2017-10-08T12:25:30.694Z,88.28
2017-10-08T12:26:30.697Z,87.55
2017-10-08T12:27:30.695Z,87.94
2017-10-08T12:28:30.694Z,88.61
2017-10-08T12:29:30.693Z,87.84
2017-10-08T12:30:30.688Z,88.99
2017-10-08T12:31:30.687Z,87.94
2017-10-08T12:32:30.683Z,88.42
2017-10-08T12:33:30.683Z,88.42
2017-10-08T12:34:30.686Z,88.80
2017-10-08T12:35:30.682Z,88.75
2017-10-08T12:36:30.681Z,88.75
2017-10-08T12:37:30.679Z,88.17
2017-10-08T12:38:30.682Z,88.08
2017-10-08T12:39:30.681Z,88.37
2017-10-08T12:40:30.680Z,88.75
2017-10-08T12:41:30.682Z,88.56
2017-10-08T12:42:30.695Z,88.17
2017-10-08T12:43:30.678Z,87.31
2017-10-08T12:44:30.674Z,87.02
2017-10-08T12:45:30.676Z,87.79
2017-10-08T12:46:30.670Z,87.70
2017-10-08T12:47:30.668Z,88.08
2017-10-08T12:48:30.669Z,87.88
2017-10-08T12:49:30.666Z,88.84
2017-10-08T12:50:30.666Z,88.46
2017-10-08T12:51:30.665Z,88.46
2017-10-08T12:52:30.663Z,88.17